Ashern, Canada
Current Conditions -  °F | °C
As of 7:31 PM on Friday 28 Nov 2014 (Local Time) from CYDN Reporting Station
Light Snow Light Snow  
Wind Chill: -22°   Ceiling: 1700
Heat Index: -14°   Visibility: 1.2mi
Dew Point: -15°   Wind: 10mph
Humidity: 92%   Direction: 90°E
Pressure: 29.7"   Gusts: NA
Location:  51.18°N, 98.33°W
Report Text: CYDN 290131Z AUTO 09009KT 1 1/4SM -SN VV017 M14/M15 A2970 RMK SLP086
Loading
Personal Weather Stations






























Interactive Weather Map New forecast layout! Learn more

10-Day Weather Forecast

Advertisements
Track Severe Weather on mobile